createdAt,value
2024-01-16T00:04:04.081Z,54.50
2024-01-16T00:09:06.614Z,54.60
2024-01-16T00:14:08.478Z,54.80
2024-01-16T00:19:11.226Z,54.30
2024-01-16T00:24:13.656Z,53.90
2024-01-16T00:29:15.445Z,53.60
2024-01-16T00:34:17.159Z,53.20
2024-01-16T00:39:19.386Z,52.90
2024-01-16T00:44:21.354Z,52.90
2024-01-16T00:49:23.328Z,52.70
2024-01-16T00:54:25.267Z,53.00
2024-01-16T00:59:28.694Z,53.40
2024-01-16T01:04:30.513Z,53.60
2024-01-16T01:09:33.422Z,53.50
2024-01-16T01:14:35.611Z,53.10
2024-01-16T01:19:37.460Z,52.80
2024-01-16T01:24:39.299Z,52.60
2024-01-16T01:29:41.038Z,52.40
2024-01-16T01:34:42.955Z,52.20
2024-01-16T01:39:44.583Z,52.10
2024-01-16T01:44:46.480Z,52.10
2024-01-16T01:49:49.059Z,52.60
2024-01-16T01:54:52.453Z,52.80
2024-01-16T01:59:54.354Z,53.00
2024-01-16T02:04:56.434Z,52.90
2024-01-16T02:09:58.116Z,52.50
2024-01-16T02:14:59.995Z,52.30
2024-01-16T02:20:01.727Z,52.10
2024-01-16T02:25:03.655Z,52.00
2024-01-16T02:30:05.822Z,51.90
2024-01-16T02:35:07.787Z,51.60
2024-01-16T02:40:10.647Z,51.70
2024-01-16T02:45:12.482Z,52.10
2024-01-16T02:50:14.347Z,52.60
2024-01-16T02:55:16.287Z,52.60
2024-01-16T03:00:18.783Z,52.50
2024-01-16T03:05:20.667Z,52.40
2024-01-16T03:10:22.539Z,52.40
2024-01-16T03:15:24.308Z,52.20
2024-01-16T03:20:26.213Z,52.40
2024-01-16T03:25:28.008Z,52.20
2024-01-16T03:30:29.924Z,51.90
2024-01-16T03:35:31.910Z,51.80
2024-01-16T03:40:35.591Z,52.10
2024-01-16T03:45:37.562Z,52.50
2024-01-16T03:50:39.458Z,52.50
2024-01-16T03:55:41.246Z,52.40
2024-01-16T04:00:43.200Z,52.00
2024-01-16T04:05:44.971Z,51.80
2024-01-16T04:10:46.776Z,51.60
2024-01-16T04:15:48.816Z,51.50
2024-01-16T04:20:52.540Z,51.30
2024-01-16T04:25:54.433Z,51.30
2024-01-16T04:30:56.759Z,51.30
2024-01-16T04:35:58.880Z,51.70
2024-01-16T04:41:04.252Z,52.30
2024-01-16T04:46:06.045Z,52.50
2024-01-16T04:51:08.851Z,52.60
2024-01-16T04:56:10.813Z,52.70
2024-01-16T05:01:14.042Z,52.40
2024-01-16T05:06:16.418Z,52.30
2024-01-16T05:11:20.126Z,51.90
2024-01-16T05:16:22.004Z,51.90
2024-01-16T05:21:23.942Z,51.60
2024-01-16T05:26:25.662Z,51.40
2024-01-16T05:31:27.491Z,51.20
2024-01-16T05:36:29.366Z,51.20
2024-01-16T05:41:34.845Z,51.70
2024-01-16T05:46:36.590Z,53.60
2024-01-16T05:51:38.326Z,53.30
2024-01-16T05:56:40.065Z,53.10
2024-01-16T06:01:41.941Z,53.20
2024-01-16T06:06:49.306Z,52.90
2024-01-16T06:11:51.286Z,52.60
2024-01-16T06:16:53.340Z,52.50
2024-01-16T06:21:55.308Z,52.40
2024-01-16T06:26:57.026Z,52.20
2024-01-16T06:31:59.367Z,52.00
2024-01-16T06:37:01.107Z,52.40
2024-01-16T06:42:03.036Z,52.70
2024-01-16T06:47:04.927Z,52.70
2024-01-16T06:52:08.097Z,52.90
2024-01-16T06:57:09.862Z,53.10
2024-01-16T07:02:11.860Z,53.20
2024-01-16T07:07:13.575Z,52.70
2024-01-16T07:12:15.378Z,51.60
2024-01-16T07:17:17.320Z,54.70
2024-01-16T07:22:19.134Z,58.10
2024-01-16T07:27:20.829Z,57.60
2024-01-16T07:32:22.680Z,57.00
2024-01-16T07:37:24.537Z,56.40
2024-01-16T07:42:26.424Z,56.50
2024-01-16T07:47:28.284Z,56.70
2024-01-16T07:52:30.250Z,56.20
2024-01-16T07:57:32.115Z,56.20
2024-01-16T08:02:35.481Z,56.30
2024-01-16T08:07:38.184Z,56.30
2024-01-16T08:12:39.951Z,56.20
2024-01-16T08:17:44.140Z,56.80
2024-01-16T08:22:46.186Z,56.70
2024-01-16T08:27:48.112Z,56.50
2024-01-16T08:32:50.324Z,56.40
2024-01-16T08:37:52.180Z,56.30
2024-01-16T08:42:58.000Z,56.20
2024-01-16T08:48:01.114Z,56.20
2024-01-16T08:53:03.237Z,55.90
2024-01-16T08:58:05.244Z,55.80
2024-01-16T09:03:06.951Z,55.50
2024-01-16T09:08:11.842Z,55.20
2024-01-16T09:13:15.277Z,54.80
2024-01-16T09:18:17.699Z,54.80
2024-01-16T09:23:20.022Z,54.60
2024-01-16T09:28:21.829Z,54.60
2024-01-16T09:33:27.003Z,54.70
2024-01-16T09:38:29.528Z,54.60
2024-01-16T09:43:32.728Z,54.70
2024-01-16T09:48:34.683Z,54.80
2024-01-16T09:53:36.616Z,54.70
2024-01-16T09:58:38.613Z,54.60
2024-01-16T10:03:41.303Z,54.70
2024-01-16T10:08:43.148Z,54.50
2024-01-16T10:13:45.644Z,54.50
2024-01-16T10:18:47.633Z,54.60
2024-01-16T10:23:50.366Z,54.90
2024-01-16T10:28:52.731Z,54.90
2024-01-16T10:33:54.502Z,54.70
2024-01-16T10:39:03.762Z,54.50
2024-01-16T10:44:07.969Z,54.20
2024-01-16T10:49:09.824Z,54.10
2024-01-16T10:54:15.047Z,53.90
2024-01-16T10:59:22.585Z,54.00
2024-01-16T11:04:25.057Z,53.90
2024-01-16T11:09:27.051Z,54.10
2024-01-16T11:14:31.450Z,54.10
2024-01-16T11:19:48.281Z,54.20
2024-01-16T11:25:26.444Z,54.20
2024-01-16T11:30:32.883Z,54.40
2024-01-16T11:35:35.711Z,54.40
2024-01-16T11:40:37.544Z,54.50
2024-01-16T11:45:39.297Z,54.50
2024-01-16T11:50:41.754Z,54.50
2024-01-16T11:55:46.865Z,54.50
2024-01-16T12:05:57.395Z,54.50
2024-01-16T12:11:00.806Z,54.50
2024-01-16T12:16:02.993Z,54.40
2024-01-16T12:21:11.841Z,54.40
2024-01-16T12:26:20.989Z,54.30
2024-01-16T12:31:22.774Z,54.50
2024-01-16T12:36:24.827Z,54.50
2024-01-16T12:41:36.661Z,54.30
2024-01-16T12:46:43.661Z,54.10
2024-01-16T12:51:45.428Z,54.10
2024-01-16T12:56:48.681Z,54.10
2024-01-16T13:01:50.567Z,54.00
2024-01-16T13:06:52.357Z,54.10
2024-01-16T13:11:59.611Z,54.10
2024-01-16T13:17:02.688Z,54.00
2024-01-16T13:22:05.337Z,53.80
2024-01-16T13:27:10.425Z,53.80
2024-01-16T13:32:12.422Z,53.80
2024-01-16T13:37:20.128Z,53.70
2024-01-16T13:42:21.936Z,53.80
2024-01-16T13:47:24.008Z,53.80
2024-01-16T13:52:27.357Z,53.90
2024-01-16T13:57:30.604Z,54.00
2024-01-16T14:02:32.589Z,55.00
2024-01-16T14:07:34.459Z,54.10
2024-01-16T14:12:36.867Z,54.20
2024-01-16T14:17:39.245Z,54.40
2024-01-16T14:22:41.461Z,54.20
2024-01-16T14:27:43.695Z,54.10
2024-01-16T14:32:45.645Z,53.90
2024-01-16T14:37:47.581Z,53.70
2024-01-16T14:42:49.457Z,53.50
2024-01-16T14:47:51.840Z,53.50
2024-01-16T14:52:54.097Z,53.50
2024-01-16T14:58:01.594Z,53.50
2024-01-16T15:03:03.668Z,53.40
2024-01-16T15:08:05.812Z,53.60
2024-01-16T15:13:07.686Z,53.50
2024-01-16T15:18:10.299Z,53.50
2024-01-16T15:23:12.362Z,53.70
2024-01-16T15:28:14.397Z,53.70
2024-01-16T15:33:16.399Z,53.70
2024-01-16T15:38:18.453Z,53.90
2024-01-16T15:43:20.560Z,53.90
2024-01-16T15:48:22.608Z,53.90
2024-01-16T15:53:24.500Z,53.80
2024-01-16T15:58:26.233Z,53.40
2024-01-16T16:03:28.133Z,53.20
2024-01-16T16:08:30.001Z,53.00
2024-01-16T16:13:32.809Z,52.90
2024-01-16T16:18:38.075Z,52.80
2024-01-16T16:23:40.071Z,53.00
2024-01-16T16:28:42.177Z,53.00
2024-01-16T16:33:44.216Z,52.90
2024-01-16T16:38:46.191Z,52.70
2024-01-16T16:43:49.209Z,52.80
2024-01-16T16:48:52.359Z,52.80
2024-01-16T16:53:55.489Z,52.70
2024-01-16T16:58:57.403Z,52.40
2024-01-16T17:03:59.245Z,51.80
2024-01-16T17:09:01.206Z,51.50
2024-01-16T17:14:03.402Z,51.00
2024-01-16T17:19:05.207Z,50.80
2024-01-16T17:24:07.501Z,50.40
2024-01-16T17:29:09.576Z,50.30
2024-01-16T17:34:13.632Z,50.00
2024-01-16T17:39:19.247Z,49.80
2024-01-16T17:44:21.086Z,49.70
2024-01-16T17:49:23.010Z,49.60
2024-01-16T17:54:24.772Z,49.40
2024-01-16T17:59:32.034Z,49.30
2024-01-16T18:04:33.971Z,49.30
2024-01-16T18:09:35.685Z,49.30
2024-01-16T18:14:39.949Z,49.00
2024-01-16T18:19:42.093Z,48.90
2024-01-16T18:24:43.951Z,48.90
2024-01-16T18:29:46.113Z,48.70
2024-01-16T18:34:47.996Z,48.70
2024-01-16T18:39:50.854Z,48.50
2024-01-16T18:44:52.949Z,48.50
2024-01-16T18:49:54.830Z,48.40
2024-01-16T18:54:56.766Z,48.40
2024-01-16T18:59:58.905Z,48.30
2024-01-16T19:05:00.856Z,48.30
2024-01-16T19:10:03.108Z,48.30
2024-01-16T19:15:05.198Z,48.30
2024-01-16T19:20:10.867Z,48.50
2024-01-16T19:25:12.982Z,48.60
2024-01-16T19:30:15.450Z,48.80
2024-01-16T19:35:18.196Z,49.10
2024-01-16T19:40:20.636Z,49.30
2024-01-16T19:45:23.932Z,49.70
2024-01-16T19:50:25.838Z,49.80
2024-01-16T19:55:27.681Z,50.00
2024-01-16T20:00:29.860Z,50.20
2024-01-16T20:05:33.465Z,50.40
2024-01-16T20:10:35.516Z,50.60
2024-01-16T20:15:37.205Z,50.80
2024-01-16T20:20:40.012Z,51.00
2024-01-16T20:25:41.993Z,51.10
2024-01-16T20:30:45.365Z,51.20
2024-01-16T20:35:47.158Z,51.40
2024-01-16T20:40:49.798Z,51.50
2024-01-16T20:45:51.599Z,51.60
2024-01-16T20:50:53.397Z,52.10
2024-01-16T20:55:58.188Z,51.90
2024-01-16T21:00:59.934Z,51.80
2024-01-16T21:06:03.033Z,51.70
2024-01-16T21:11:05.991Z,51.70
2024-01-16T21:16:07.735Z,51.80
2024-01-16T21:21:09.356Z,52.00
2024-01-16T21:26:11.181Z,51.90
2024-01-16T21:31:13.935Z,51.70
2024-01-16T21:36:15.829Z,51.50
2024-01-16T21:41:17.760Z,51.30
2024-01-16T21:46:19.554Z,51.00
2024-01-16T21:51:21.488Z,51.00
2024-01-16T21:56:23.812Z,51.00
2024-01-16T22:01:26.277Z,51.00
2024-01-16T22:06:28.136Z,50.90
2024-01-16T22:11:30.087Z,50.90
2024-01-16T22:16:31.891Z,51.00
2024-01-16T22:21:34.183Z,51.00
2024-01-16T22:26:36.033Z,51.10
2024-01-16T22:31:41.432Z,51.10
2024-01-16T22:36:43.258Z,51.40
2024-01-16T22:41:48.558Z,51.30
2024-01-16T22:46:51.216Z,51.20
2024-01-16T22:51:53.140Z,51.00
2024-01-16T22:56:55.428Z,50.80
2024-01-16T23:01:57.277Z,50.50
2024-01-16T23:06:58.963Z,50.30
2024-01-16T23:12:00.808Z,50.30
2024-01-16T23:17:03.078Z,50.30
2024-01-16T23:22:04.883Z,50.10
2024-01-16T23:27:07.382Z,50.20
2024-01-16T23:32:09.103Z,50.00
2024-01-16T23:37:11.564Z,49.80
2024-01-16T23:42:16.029Z,49.70
2024-01-16T23:47:18.384Z,49.50
2024-01-16T23:52:20.491Z,49.40
2024-01-16T23:57:22.552Z,49.80
